createdAt,value
2019-01-27T00:01:01.840Z,9.90
2019-01-27T00:05:07.292Z,8.10
2019-01-27T00:09:12.174Z,9.70
2019-01-27T00:13:16.984Z,10.77
2019-01-27T00:17:21.781Z,8.53
2019-01-27T00:21:26.595Z,13.07
2019-01-27T00:25:31.408Z,9.63
2019-01-27T00:29:36.211Z,8.87
2019-01-27T00:33:41.019Z,8.43
2019-01-27T00:37:45.815Z,8.50
2019-01-27T00:41:50.623Z,9.93
2019-01-27T00:45:55.443Z,6.90
2019-01-27T00:50:00.261Z,8.23
2019-01-27T00:54:05.135Z,6.97
2019-01-27T00:58:09.925Z,9.63
2019-01-27T01:02:14.743Z,8.47
2019-01-27T01:06:19.551Z,5.97
2019-01-27T01:10:24.658Z,7.83
2019-01-27T01:14:29.467Z,7.20
2019-01-27T01:18:34.271Z,6.67
2019-01-27T01:22:39.250Z,6.80
2019-01-27T01:26:44.075Z,6.90
2019-01-27T01:30:48.895Z,7.53
2019-01-27T01:34:53.767Z,7.07
2019-01-27T01:38:58.721Z,7.97
2019-01-27T01:43:03.510Z,6.80
2019-01-27T01:47:08.323Z,9.53
2019-01-27T01:51:13.138Z,6.23
2019-01-27T01:55:17.946Z,6.77
2019-01-27T01:59:22.754Z,5.63
2019-01-27T02:03:27.557Z,4.90
2019-01-27T02:07:32.359Z,6.40
2019-01-27T02:11:38.527Z,7.27
2019-01-27T02:15:55.788Z,6.60
2019-01-27T02:20:01.659Z,7.17
2019-01-27T02:24:06.525Z,7.43
2019-01-27T02:28:11.344Z,6.07
2019-01-27T02:32:16.151Z,5.07
2019-01-27T02:36:20.971Z,4.00
2019-01-27T02:40:25.792Z,5.03
2019-01-27T02:44:30.605Z,6.20
2019-01-27T02:48:35.411Z,5.07
2019-01-27T02:52:40.211Z,5.07
2019-01-27T02:56:45.033Z,4.63
2019-01-27T03:00:49.945Z,4.17
2019-01-27T03:04:56.487Z,3.80
2019-01-27T03:09:02.903Z,3.83
2019-01-27T03:13:09.349Z,3.37
2019-01-27T03:17:16.035Z,3.67
2019-01-27T03:21:20.839Z,4.30
2019-01-27T03:25:25.651Z,5.00
2019-01-27T03:29:30.450Z,3.30
2019-01-27T03:33:35.263Z,4.07
2019-01-27T03:37:40.080Z,4.17
2019-01-27T03:41:44.903Z,3.13
2019-01-27T03:45:49.750Z,2.97
2019-01-27T03:49:54.531Z,7.57
2019-01-27T03:53:59.354Z,2.13
2019-01-27T03:58:04.270Z,2.27
2019-01-27T04:02:09.084Z,2.70
2019-01-27T04:06:13.961Z,1.70
2019-01-27T04:10:24.563Z,2.90
2019-01-27T04:14:29.384Z,2.43
2019-01-27T04:18:34.186Z,4.27
2019-01-27T04:22:38.999Z,2.13
2019-01-27T04:26:43.830Z,2.40
2019-01-27T04:30:48.639Z,2.33
2019-01-27T04:34:53.435Z,3.37
2019-01-27T04:38:58.318Z,3.83
2019-01-27T04:43:03.132Z,2.97
2019-01-27T04:47:07.982Z,2.20
2019-01-27T04:51:12.791Z,3.20
2019-01-27T04:55:18.715Z,2.23
2019-01-27T04:59:23.642Z,2.07
2019-01-27T05:03:30.087Z,3.80
2019-01-27T05:07:34.939Z,1.80
2019-01-27T05:11:39.866Z,2.73
2019-01-27T05:15:44.684Z,3.57
2019-01-27T05:19:49.587Z,3.17
2019-01-27T05:23:54.400Z,2.33
2019-01-27T05:27:59.217Z,2.87
2019-01-27T05:32:04.025Z,2.73
2019-01-27T05:36:08.835Z,4.73
2019-01-27T05:40:16.235Z,5.23
2019-01-27T05:44:21.044Z,3.40
2019-01-27T05:48:25.937Z,3.47
2019-01-27T05:52:31.547Z,4.40
2019-01-27T05:56:36.358Z,4.07
2019-01-27T06:00:42.781Z,3.83
2019-01-27T06:04:47.609Z,5.17
2019-01-27T06:08:52.412Z,5.10
2019-01-27T06:12:57.245Z,3.67
2019-01-27T06:17:02.146Z,4.23
2019-01-27T06:21:06.934Z,4.83
2019-01-27T06:25:17.056Z,4.30
2019-01-27T06:29:21.872Z,4.20
2019-01-27T06:33:28.321Z,4.00
2019-01-27T06:37:33.144Z,5.83
2019-01-27T06:41:38.047Z,6.33
2019-01-27T06:45:42.855Z,4.20
2019-01-27T06:49:47.676Z,4.17
2019-01-27T06:53:52.499Z,5.27
2019-01-27T06:57:57.303Z,4.07
2019-01-27T07:02:03.816Z,3.43
2019-01-27T07:06:12.926Z,8.90
2019-01-27T07:10:35.639Z,5.07
2019-01-27T07:14:48.174Z,4.10
2019-01-27T07:19:03.782Z,6.27
2019-01-27T07:23:27.728Z,4.50
2019-01-27T07:27:42.972Z,4.67
2019-01-27T07:31:49.424Z,5.17
2019-01-27T07:35:55.860Z,4.83
2019-01-27T07:40:08.072Z,5.67
2019-01-27T07:44:17.211Z,4.70
2019-01-27T07:48:32.452Z,4.40
2019-01-27T07:52:51.054Z,3.67
2019-01-27T07:56:57.493Z,4.70
2019-01-27T08:01:03.918Z,5.53
2019-01-27T08:05:28.138Z,4.53
2019-01-27T08:09:34.860Z,5.37
2019-01-27T08:13:41.315Z,3.90
2019-01-27T08:18:06.224Z,3.40
2019-01-27T08:22:21.611Z,7.20
2019-01-27T08:26:33.840Z,5.77
2019-01-27T08:30:43.193Z,6.03
2019-01-27T08:35:07.834Z,7.70
2019-01-27T08:39:14.296Z,6.57
2019-01-27T08:43:37.008Z,7.70
2019-01-27T08:47:41.898Z,8.10
2019-01-27T08:51:46.745Z,5.10
2019-01-27T08:55:51.559Z,5.03
2019-01-27T08:59:56.363Z,5.17
2019-01-27T09:04:02.817Z,6.50
2019-01-27T09:08:09.272Z,5.43
2019-01-27T09:12:18.404Z,6.63
2019-01-27T09:16:30.949Z,4.57
2019-01-27T09:20:41.232Z,2.50
2019-01-27T09:24:56.522Z,4.80
2019-01-27T09:29:05.843Z,4.13
2019-01-27T09:33:12.321Z,7.30
2019-01-27T09:37:18.751Z,4.50
2019-01-27T09:41:25.200Z,5.00
2019-01-27T09:45:31.666Z,5.03
2019-01-27T09:49:41.010Z,6.23
2019-01-27T09:53:50.695Z,4.93
2019-01-27T09:58:03.415Z,5.60
2019-01-27T10:02:12.633Z,4.23
2019-01-27T10:06:28.292Z,5.60
2019-01-27T10:10:37.484Z,7.80
2019-01-27T10:14:49.912Z,7.50
2019-01-27T10:19:14.533Z,5.47
2019-01-27T10:23:37.187Z,6.80
2019-01-27T10:27:55.411Z,6.87
2019-01-27T10:32:01.858Z,4.03
2019-01-27T10:36:10.994Z,24.57
2019-01-27T10:40:17.448Z,5.97
2019-01-27T10:44:23.899Z,7.17
2019-01-27T10:48:33.481Z,7.37
2019-01-27T10:52:44.012Z,5.40
2019-01-27T10:57:02.280Z,4.23
2019-01-27T11:01:08.799Z,5.10
2019-01-27T11:05:30.576Z,4.73
2019-01-27T11:09:52.355Z,2.73
2019-01-27T11:14:11.060Z,3.53
2019-01-27T11:18:20.186Z,4.27
2019-01-27T11:22:29.555Z,1.33
2019-01-27T11:26:36.008Z,5.37
2019-01-27T11:30:54.363Z,2.50
2019-01-27T11:35:06.528Z,3.97
2019-01-27T11:39:15.677Z,4.97
2019-01-27T11:43:22.107Z,3.10
2019-01-27T11:47:31.230Z,2.93
2019-01-27T11:51:37.939Z,4.43
2019-01-27T11:55:42.769Z,3.20
2019-01-27T11:59:47.595Z,2.40
2019-01-27T12:03:52.402Z,4.40
2019-01-27T12:07:57.271Z,3.97
2019-01-27T12:12:02.115Z,5.12
2019-01-27T12:16:06.928Z,3.13
2019-01-27T12:20:12.572Z,2.63
2019-01-27T12:24:17.415Z,2.20
2019-01-27T12:28:22.285Z,1.73
2019-01-27T12:32:27.604Z,2.93
2019-01-27T12:36:32.695Z,1.90
2019-01-27T12:40:37.776Z,3.87
2019-01-27T12:44:42.887Z,2.57
2019-01-27T12:48:47.946Z,2.77
2019-01-27T12:52:53.965Z,3.57
2019-01-27T12:56:59.043Z,2.57
2019-01-27T13:01:03.924Z,4.50
2019-01-27T13:05:10.445Z,2.02
2019-01-27T13:09:15.611Z,1.90
2019-01-27T13:13:20.450Z,3.70
2019-01-27T13:17:26.532Z,2.87
2019-01-27T13:21:31.646Z,2.37
2019-01-27T13:25:36.747Z,3.13
2019-01-27T13:29:41.558Z,2.50
2019-01-27T13:33:46.391Z,2.13
2019-01-27T13:37:52.675Z,2.73
2019-01-27T13:41:57.790Z,2.23
2019-01-27T13:46:02.607Z,3.00
2019-01-27T13:50:10.526Z,3.93
2019-01-27T13:54:16.279Z,2.80
2019-01-27T13:58:21.102Z,2.50
2019-01-27T14:02:25.958Z,4.30
2019-01-27T14:06:30.839Z,3.83
2019-01-27T14:10:35.654Z,4.40
2019-01-27T14:14:40.457Z,3.90
2019-01-27T14:18:45.266Z,4.17
2019-01-27T14:22:50.115Z,4.37
2019-01-27T14:26:54.948Z,3.60
2019-01-27T14:30:59.758Z,4.93
2019-01-27T14:35:06.402Z,8.73
2019-01-27T14:39:11.324Z,5.03
2019-01-27T14:43:16.134Z,5.40
2019-01-27T14:47:21.751Z,4.50
2019-01-27T14:51:27.576Z,5.53
2019-01-27T14:55:32.410Z,4.93
2019-01-27T14:59:37.251Z,6.40
2019-01-27T15:03:42.055Z,6.43
2019-01-27T15:07:46.940Z,4.33
2019-01-27T15:11:52.888Z,5.60
2019-01-27T15:15:57.690Z,5.27
2019-01-27T15:20:02.484Z,6.20
2019-01-27T15:24:07.292Z,4.27
2019-01-27T15:28:12.103Z,4.77
2019-01-27T15:32:17.119Z,5.40
2019-01-27T15:36:21.936Z,5.80
2019-01-27T15:40:26.728Z,5.53
2019-01-27T15:44:31.535Z,3.67
2019-01-27T15:48:36.347Z,5.37
2019-01-27T15:52:42.247Z,8.37
2019-01-27T15:56:47.062Z,5.00
2019-01-27T16:00:51.896Z,5.27
2019-01-27T16:04:56.679Z,7.37
2019-01-27T16:09:01.516Z,4.93
2019-01-27T16:13:07.939Z,5.80
2019-01-27T16:17:13.762Z,5.57
2019-01-27T16:21:18.571Z,6.40
2019-01-27T16:25:23.363Z,7.53
2019-01-27T16:29:29.816Z,8.13
2019-01-27T16:33:52.890Z,7.60
2019-01-27T16:37:57.703Z,4.90
2019-01-27T16:42:02.527Z,5.20
2019-01-27T16:46:07.406Z,6.23
2019-01-27T16:50:15.101Z,4.73
2019-01-27T16:54:19.919Z,6.80
2019-01-27T16:58:24.728Z,6.87
2019-01-27T17:02:29.570Z,4.83
2019-01-27T17:06:34.438Z,6.20
2019-01-27T17:10:39.231Z,6.07
2019-01-27T17:14:44.038Z,6.57
2019-01-27T17:18:48.855Z,7.47
2019-01-27T17:22:53.681Z,5.17
2019-01-27T17:26:58.778Z,7.37
2019-01-27T17:31:03.653Z,6.40
2019-01-27T17:35:10.511Z,10.37
2019-01-27T17:39:15.330Z,10.90
2019-01-27T17:43:20.153Z,8.77
2019-01-27T17:47:24.988Z,7.40
2019-01-27T17:51:29.796Z,8.63
2019-01-27T17:55:42.152Z,9.37
2019-01-27T17:59:48.644Z,9.43
2019-01-27T18:03:55.109Z,10.13
2019-01-27T18:08:04.395Z,8.83
2019-01-27T18:12:10.847Z,8.57
2019-01-27T18:16:15.648Z,9.63
2019-01-27T18:20:20.538Z,11.67
2019-01-27T18:24:25.453Z,9.43
2019-01-27T18:28:30.265Z,12.50
2019-01-27T18:32:35.097Z,10.80
2019-01-27T18:36:39.891Z,12.73
2019-01-27T18:40:45.680Z,13.37
2019-01-27T18:44:50.500Z,10.70
2019-01-27T18:48:55.309Z,7.87
2019-01-27T18:53:03.547Z,8.67
2019-01-27T18:57:18.999Z,9.13
2019-01-27T19:01:41.937Z,7.77
2019-01-27T19:05:48.388Z,8.67
2019-01-27T19:10:11.333Z,10.10
2019-01-27T19:14:17.811Z,10.90
2019-01-27T19:18:40.547Z,9.20
2019-01-27T19:22:46.995Z,11.13
2019-01-27T19:27:11.586Z,11.20
2019-01-27T19:31:30.062Z,11.00
2019-01-27T19:35:42.286Z,11.77
2019-01-27T19:39:57.864Z,11.13
2019-01-27T19:44:16.314Z,9.53
2019-01-27T19:48:22.801Z,12.63
2019-01-27T19:52:41.108Z,12.47
2019-01-27T19:57:03.816Z,10.53
2019-01-27T20:01:20.324Z,10.67
2019-01-27T20:05:41.982Z,11.53
2019-01-27T20:09:57.530Z,13.00
2019-01-27T20:14:06.524Z,12.57
2019-01-27T20:18:13.135Z,13.83
2019-01-27T20:22:25.500Z,11.57
2019-01-27T20:26:41.175Z,10.97
2019-01-27T20:30:47.791Z,10.43
2019-01-27T20:35:00.317Z,9.60
2019-01-27T20:39:24.877Z,9.40
2019-01-27T20:43:40.283Z,11.73
2019-01-27T20:47:52.750Z,10.63
2019-01-27T20:52:01.907Z,13.13
2019-01-27T20:56:09.439Z,12.17
2019-01-27T21:00:35.707Z,10.40
2019-01-27T21:04:42.344Z,10.27
2019-01-27T21:08:51.826Z,10.23
2019-01-27T21:12:58.273Z,11.03
2019-01-27T21:17:04.804Z,11.97
2019-01-27T21:21:10.695Z,9.07
2019-01-27T21:25:15.512Z,10.80
2019-01-27T21:29:20.490Z,7.27
2019-01-27T21:33:25.284Z,9.13
2019-01-27T21:37:30.099Z,6.97
2019-01-27T21:41:34.908Z,8.53
2019-01-27T21:45:39.744Z,9.67
2019-01-27T21:49:45.638Z,8.80
2019-01-27T21:53:52.223Z,9.10
2019-01-27T21:57:57.495Z,8.77
2019-01-27T22:02:02.302Z,8.83
2019-01-27T22:06:07.280Z,8.80
2019-01-27T22:10:14.215Z,9.43
2019-01-27T22:14:19.001Z,8.97
2019-01-27T22:18:23.815Z,7.90
2019-01-27T22:22:29.633Z,7.17
2019-01-27T22:26:34.446Z,8.80
2019-01-27T22:30:39.259Z,8.87
2019-01-27T22:34:44.067Z,8.57
2019-01-27T22:38:48.940Z,6.03
2019-01-27T22:42:54.738Z,7.90
2019-01-27T22:46:59.560Z,8.00
2019-01-27T22:51:04.377Z,8.90
2019-01-27T22:55:10.243Z,5.70
2019-01-27T22:59:15.024Z,5.97
2019-01-27T23:03:19.840Z,5.67
2019-01-27T23:07:24.667Z,7.43
2019-01-27T23:11:29.566Z,10.13
2019-01-27T23:15:34.399Z,8.33
2019-01-27T23:19:39.175Z,6.93
2019-01-27T23:23:43.993Z,7.67
2019-01-27T23:27:48.804Z,4.70
2019-01-27T23:31:53.620Z,5.70
2019-01-27T23:35:58.440Z,4.90
2019-01-27T23:40:04.015Z,5.60
2019-01-27T23:44:08.823Z,6.90
2019-01-27T23:48:13.714Z,5.87
2019-01-27T23:52:18.523Z,5.73
2019-01-27T23:56:23.405Z,5.10
